Time,TemperatureF,DewpointF,PressureIn,WindDirection,WindDirectionDegrees,WindSpeedMPH,WindSpeedGustMPH,Humidity,HourlyPrecipIn,Conditions,Clouds,dailyrainin,SoftwareType,DateUTC
2013-09-21 00:03:00,51.8,45.5,30.05,NW,316,0.0,0.0,79,0.00,,SKC,0.00,VWS V13.01,2013-09-21 05:03:00,
2013-09-21 00:08:00,51.5,45.2,30.05,NW,316,0.0,0.0,79,0.00,,SKC,0.00,VWS V13.01,2013-09-21 05:08:00,
2013-09-21 00:13:00,51.3,45.3,30.05,NW,316,0.0,0.0,80,0.00,,SKC,0.00,VWS V13.01,2013-09-21 05:13:00,
2013-09-21 00:18:00,51.2,45.2,30.05,NW,316,0.0,0.0,80,0.00,,SKC,0.00,VWS V13.01,2013-09-21 05:18:00,
2013-09-21 00:23:00,51.0,45.4,30.05,NW,316,0.0,0.0,81,0.00,,SKC,0.00,VWS V13.01,2013-09-21 05:23:00,
2013-09-21 00:28:00,50.9,45.3,30.05,NW,316,0.0,0.0,81,0.00,,SKC,0.00,VWS V13.01,2013-09-21 05:28:00,
2013-09-21 00:33:00,50.8,45.5,30.05,NW,316,0.0,0.0,82,0.00,,SKC,0.00,VWS V13.01,2013-09-21 05:33:00,
2013-09-21 00:38:00,50.7,45.4,30.05,NW,316,0.0,0.0,82,0.00,,SKC,0.00,VWS V13.01,2013-09-21 05:38:00,
2013-09-21 00:44:00,50.6,45.3,30.05,NW,316,0.0,0.0,82,0.00,,SKC,0.00,VWS V13.01,2013-09-21 05:44:00,
2013-09-21 00:49:00,50.6,45.6,30.05,NW,316,0.0,0.0,83,0.01,,SKC,0.01,VWS V13.01,2013-09-21 05:49:00,
2013-09-21 00:54:00,50.5,45.5,30.05,NW,316,0.0,0.0,83,0.01,,SKC,0.01,VWS V13.01,2013-09-21 05:54:00,
2013-09-21 00:59:00,50.4,45.4,30.04,NW,316,0.0,0.0,83,0.01,,SKC,0.01,VWS V13.01,2013-09-21 05:59:00,
2013-09-21 01:04:00,50.3,45.7,30.05,NW,316,0.0,0.0,84,0.01,,SKC,0.01,VWS V13.01,2013-09-21 06:04:00,
2013-09-21 01:09:00,50.2,45.6,30.04,NW,316,0.0,0.0,84,0.01,,SKC,0.01,VWS V13.01,2013-09-21 06:09:00,
2013-09-21 01:14:00,50.1,45.5,30.04,NW,316,0.0,0.0,84,0.01,,SKC,0.01,VWS V13.01,2013-09-21 06:14:00,
2013-09-21 01:19:00,50.0,45.4,30.04,NW,316,0.0,0.0,84,0.01,,SKC,0.01,VWS V13.01,2013-09-21 06:19:00,
2013-09-21 01:24:00,50.0,45.7,30.04,NW,316,0.0,0.0,85,0.01,,SKC,0.01,VWS V13.01,2013-09-21 06:24:00,
2013-09-21 01:29:00,49.9,45.6,30.05,NW,316,0.0,0.0,85,0.01,,SKC,0.01,VWS V13.01,2013-09-21 06:29:00,
2013-09-21 01:34:00,49.7,45.4,30.05,NW,316,0.0,0.0,85,0.01,,SKC,0.01,VWS V13.01,2013-09-21 06:34:00,
2013-09-21 01:40:00,49.5,45.2,30.05,NW,316,0.0,0.0,85,0.01,,SKC,0.01,VWS V13.01,2013-09-21 06:40:00,
2013-09-21 01:45:00,49.3,45.3,30.05,NW,316,0.0,0.0,86,0.01,,SKC,0.01,VWS V13.01,2013-09-21 06:45:00,
2013-09-21 01:50:00,49.2,45.2,30.05,NW,316,0.0,0.0,86,0.00,,SKC,0.01,VWS V13.01,2013-09-21 06:50:00,
2013-09-21 01:55:00,49.1,45.1,30.05,NW,316,0.0,0.0,86,0.00,,SKC,0.01,VWS V13.01,2013-09-21 06:55:00,
2013-09-21 02:00:00,49.0,45.0,30.05,NW,316,0.0,0.0,86,0.00,,SKC,0.01,VWS V13.01,2013-09-21 07:00:00,
2013-09-21 02:05:00,48.8,44.8,30.05,NW,316,0.0,0.0,86,0.00,,SKC,0.01,VWS V13.01,2013-09-21 07:05:00,
2013-09-21 02:10:00,48.8,44.8,30.05,NW,316,0.0,0.0,86,0.00,,SKC,0.01,VWS V13.01,2013-09-21 07:10:00,
2013-09-21 02:16:00,48.7,45.0,30.05,NW,316,0.0,0.0,87,0.00,,SKC,0.01,VWS V13.01,2013-09-21 07:16:00,
2013-09-21 02:21:00,48.7,45.0,30.05,NW,316,0.0,0.0,87,0.00,,SKC,0.01,VWS V13.01,2013-09-21 07:21:00,
2013-09-21 02:26:00,48.6,44.9,30.05,NW,316,0.0,0.0,87,0.00,,SKC,0.01,VWS V13.01,2013-09-21 07:26:00,
2013-09-21 02:32:00,48.4,44.7,30.05,NW,316,0.0,0.0,87,0.00,,SKC,0.01,VWS V13.01,2013-09-21 07:32:00,
2013-09-21 02:37:00,48.3,44.6,30.05,NW,316,0.0,0.0,87,0.00,,SKC,0.01,VWS V13.01,2013-09-21 07:37:00,
2013-09-21 02:42:00,48.3,44.9,30.05,NW,316,0.0,0.0,88,0.00,,SKC,0.01,VWS V13.01,2013-09-21 07:42:00,
2013-09-21 02:48:00,48.1,44.7,30.05,NW,316,0.0,0.0,88,0.00,,SKC,0.01,VWS V13.01,2013-09-21 07:48:00,
2013-09-21 02:53:00,48.0,44.6,30.05,NW,316,0.0,0.0,88,0.00,,SKC,0.01,VWS V13.01,2013-09-21 07:53:00,
2013-09-21 02:58:00,47.8,44.4,30.05,NW,316,0.0,0.0,88,0.00,,SKC,0.01,VWS V13.01,2013-09-21 07:58:00,
2013-09-21 03:03:00,47.7,44.3,30.05,NW,316,0.0,0.0,88,0.00,,SKC,0.01,VWS V13.01,2013-09-21 08:03:00,
2013-09-21 03:09:00,47.6,44.5,30.05,NW,316,0.0,0.0,89,0.00,,SKC,0.01,VWS V13.01,2013-09-21 08:09:00,
2013-09-21 03:14:00,47.5,44.4,30.05,NW,316,0.0,0.0,89,0.00,,SKC,0.01,VWS V13.01,2013-09-21 08:14:00,
2013-09-21 03:19:00,47.4,44.3,30.05,NW,316,0.0,0.0,89,0.00,,SKC,0.01,VWS V13.01,2013-09-21 08:19:00,
2013-09-21 03:25:00,47.3,44.2,30.05,NW,316,0.0,0.0,89,0.00,,SKC,0.01,VWS V13.01,2013-09-21 08:25:00,
2013-09-21 03:30:00,47.3,44.2,30.05,NW,316,0.0,0.0,89,0.00,,SKC,0.01,VWS V13.01,2013-09-21 08:30:00,
2013-09-21 03:35:00,47.2,44.1,30.05,NW,316,0.0,0.0,89,0.00,,SKC,0.01,VWS V13.01,2013-09-21 08:35:00,
2013-09-21 03:41:00,47.0,43.9,30.05,NW,316,0.0,0.0,89,0.00,,SKC,0.01,VWS V13.01,2013-09-21 08:41:00,
2013-09-21 03:46:00,47.0,43.9,30.05,NW,316,0.0,0.0,89,0.00,,SKC,0.01,VWS V13.01,2013-09-21 08:46:00,
2013-09-21 03:51:00,46.9,43.8,30.05,NW,316,0.0,0.0,89,0.00,,SKC,0.01,VWS V13.01,2013-09-21 08:51:00,
2013-09-21 03:56:00,46.9,44.1,30.05,NW,316,0.0,0.0,90,0.00,,SKC,0.01,VWS V13.01,2013-09-21 08:56:00,
2013-09-21 04:01:00,46.9,44.1,30.05,NW,316,0.0,0.0,90,0.00,,SKC,0.01,VWS V13.01,2013-09-21 09:01:00,
2013-09-21 04:06:00,46.8,44.0,30.05,NW,316,0.0,0.0,90,0.00,,SKC,0.01,VWS V13.01,2013-09-21 09:06:00,
2013-09-21 04:11:00,46.8,44.0,30.05,NW,316,0.0,0.0,90,0.00,,SKC,0.01,VWS V13.01,2013-09-21 09:11:00,
2013-09-21 04:16:00,46.8,44.0,30.05,NW,316,0.0,0.0,90,0.00,,SKC,0.01,VWS V13.01,2013-09-21 09:16:00,
2013-09-21 04:22:00,46.7,43.9,30.04,NW,316,0.0,0.0,90,0.00,,SKC,0.01,VWS V13.01,2013-09-21 09:22:00,
2013-09-21 04:27:00,46.6,43.8,30.04,NW,316,0.0,0.0,90,0.00,,SKC,0.01,VWS V13.01,2013-09-21 09:27:00,
2013-09-21 04:32:00,46.5,43.7,30.04,NW,316,0.0,0.0,90,0.00,,SKC,0.01,VWS V13.01,2013-09-21 09:32:00,
2013-09-21 04:37:00,46.5,44.0,30.04,NW,316,0.0,0.0,91,0.00,,SKC,0.01,VWS V13.01,2013-09-21 09:37:00,
2013-09-21 04:43:00,46.6,44.1,30.04,NW,316,0.0,0.0,91,0.00,,SKC,0.01,VWS V13.01,2013-09-21 09:43:00,
2013-09-21 04:49:00,46.6,44.1,30.04,NW,316,0.0,0.0,91,0.00,,SKC,0.01,VWS V13.01,2013-09-21 09:49:00,
2013-09-21 04:55:00,46.6,44.1,30.04,NW,316,0.0,0.0,91,0.00,,SKC,0.01,VWS V13.01,2013-09-21 09:55:00,
2013-09-21 05:01:00,46.5,44.0,30.04,NW,316,0.0,0.0,91,0.00,,SKC,0.01,VWS V13.01,2013-09-21 10:01:00,
2013-09-21 05:07:00,46.4,43.9,30.04,NW,316,0.0,0.0,91,0.00,,SKC,0.01,VWS V13.01,2013-09-21 10:07:00,
2013-09-21 05:12:00,46.4,43.9,30.04,NW,316,0.0,0.0,91,0.00,,SKC,0.01,VWS V13.01,2013-09-21 10:12:00,
2013-09-21 05:18:00,46.5,44.0,30.04,NW,316,0.0,0.0,91,0.00,,SKC,0.01,VWS V13.01,2013-09-21 10:18:00,
2013-09-21 05:23:00,46.5,44.0,30.05,NW,316,0.0,0.0,91,0.00,,SKC,0.01,VWS V13.01,2013-09-21 10:23:00,
2013-09-21 05:28:00,46.5,44.0,30.04,NW,316,0.0,0.0,91,0.00,,SKC,0.01,VWS V13.01,2013-09-21 10:28:00,
2013-09-21 05:34:00,46.5,44.0,30.04,NW,316,0.0,0.0,91,0.00,,SKC,0.01,VWS V13.01,2013-09-21 10:34:00,
2013-09-21 05:39:00,46.5,44.0,30.05,NW,316,0.0,0.0,91,0.00,,SKC,0.01,VWS V13.01,2013-09-21 10:39:00,
2013-09-21 05:44:00,46.5,44.0,30.05,NW,316,0.0,0.0,91,0.00,,SKC,0.01,VWS V13.01,2013-09-21 10:44:00,
2013-09-21 05:49:00,46.4,44.2,30.05,NW,316,0.0,0.0,92,0.00,,SKC,0.01,VWS V13.01,2013-09-21 10:49:00,
2013-09-21 05:54:00,46.4,44.2,30.05,NW,316,0.0,0.0,92,0.00,,SKC,0.01,VWS V13.01,2013-09-21 10:54:00,
2013-09-21 05:59:00,46.4,44.2,30.05,NW,316,0.0,0.0,92,0.00,,SKC,0.01,VWS V13.01,2013-09-21 10:59:00,
2013-09-21 06:05:00,46.4,44.2,30.05,NW,316,0.0,0.0,92,0.00,,SKC,0.01,VWS V13.01,2013-09-21 11:05:00,
2013-09-21 06:10:00,46.4,44.2,30.05,NW,316,0.0,0.0,92,0.00,,SKC,0.01,VWS V13.01,2013-09-21 11:10:00,
2013-09-21 06:15:00,46.4,44.2,30.05,NW,316,0.0,0.0,92,0.00,,SKC,0.01,VWS V13.01,2013-09-21 11:15:00,
2013-09-21 06:20:00,46.3,44.1,30.05,NW,316,0.0,0.0,92,0.00,,SKC,0.01,VWS V13.01,2013-09-21 11:20:00,
2013-09-21 06:25:00,46.2,44.0,30.05,NW,316,0.0,0.0,92,0.00,,SKC,0.01,VWS V13.01,2013-09-21 11:25:00,
2013-09-21 06:31:00,46.0,43.8,30.05,NW,316,0.0,0.0,92,0.00,,SKC,0.01,VWS V13.01,2013-09-21 11:31:00,
2013-09-21 06:37:00,45.9,43.7,30.05,NW,316,0.0,0.0,92,0.00,,SKC,0.01,VWS V13.01,2013-09-21 11:37:00,
2013-09-21 06:42:00,45.8,43.6,30.05,NW,316,0.0,0.0,92,0.00,,SKC,0.01,VWS V13.01,2013-09-21 11:42:00,
2013-09-21 06:48:00,45.6,43.4,30.05,NW,316,0.0,0.0,92,0.00,,SKC,0.01,VWS V13.01,2013-09-21 11:48:00,
2013-09-21 06:53:00,45.5,43.3,30.05,NW,316,0.0,0.0,92,0.00,,SKC,0.01,VWS V13.01,2013-09-21 11:53:00,
2013-09-21 06:59:00,45.4,43.2,30.05,NW,316,0.0,0.0,92,0.00,,SKC,0.01,VWS V13.01,2013-09-21 11:59:00,
2013-09-21 07:05:00,45.3,43.1,30.05,NW,316,0.0,0.0,92,0.00,,SKC,0.01,VWS V13.01,2013-09-21 12:05:00,
2013-09-21 07:11:00,45.2,43.0,30.05,NW,316,0.0,0.0,92,0.00,,SKC,0.01,VWS V13.01,2013-09-21 12:11:00,
2013-09-21 07:17:00,45.2,43.0,30.05,NW,316,0.0,0.0,92,0.00,,SKC,0.01,VWS V13.01,2013-09-21 12:17:00,
2013-09-21 07:23:00,45.1,42.9,30.05,NW,316,0.0,0.0,92,0.00,,SKC,0.01,VWS V13.01,2013-09-21 12:23:00,
2013-09-21 07:28:00,45.1,42.9,30.05,NW,316,0.0,0.0,92,0.00,,SKC,0.01,VWS V13.01,2013-09-21 12:28:00,
2013-09-21 07:33:00,45.1,42.9,30.05,NW,316,0.0,0.0,92,0.00,,SKC,0.01,VWS V13.01,2013-09-21 12:33:00,
2013-09-21 07:38:00,45.1,42.9,30.06,NW,316,0.0,0.0,92,0.00,,SKC,0.01,VWS V13.01,2013-09-21 12:38:00,
2013-09-21 07:43:00,45.2,43.0,30.06,NW,316,0.0,0.0,92,0.00,,SKC,0.01,VWS V13.01,2013-09-21 12:43:00,
2013-09-21 07:48:00,45.4,43.5,30.07,NW,316,0.0,0.0,93,0.00,,SKC,0.01,VWS V13.01,2013-09-21 12:48:00,
2013-09-21 07:53:00,46.0,44.1,30.07,NW,316,0.0,0.0,93,0.00,,SKC,0.01,VWS V13.01,2013-09-21 12:53:00,
2013-09-21 07:58:00,46.7,44.8,30.07,NW,316,0.0,0.0,93,0.00,,SKC,0.01,VWS V13.01,2013-09-21 12:58:00,
2013-09-21 08:03:00,47.1,45.2,30.07,NW,316,0.0,0.0,93,0.00,,SKC,0.01,VWS V13.01,2013-09-21 13:03:00,
2013-09-21 08:09:00,47.6,45.7,30.07,NW,316,0.0,0.0,93,0.00,,SKC,0.01,VWS V13.01,2013-09-21 13:09:00,
2013-09-21 08:14:00,48.4,46.8,30.07,NW,316,0.0,0.0,94,0.00,,SKC,0.01,VWS V13.01,2013-09-21 13:14:00,
2013-09-21 08:19:00,49.0,47.3,30.07,NW,316,0.0,0.0,94,0.00,,SKC,0.01,VWS V13.01,2013-09-21 13:19:00,
2013-09-21 08:24:00,49.5,47.8,30.06,NW,316,0.0,0.0,94,0.00,,SKC,0.01,VWS V13.01,2013-09-21 13:24:00,
2013-09-21 08:29:00,50.3,48.6,30.06,NW,316,0.0,0.0,94,0.00,,SKC,0.01,VWS V13.01,2013-09-21 13:29:00,
2013-09-21 08:34:00,50.5,48.6,30.07,NW,316,0.0,0.0,93,0.00,,SKC,0.01,VWS V13.01,2013-09-21 13:34:00,
2013-09-21 08:40:00,51.2,49.2,30.07,NW,316,0.0,0.0,93,0.00,,SKC,0.01,VWS V13.01,2013-09-21 13:40:00,
2013-09-21 08:45:00,52.0,49.8,30.07,NW,316,0.0,0.0,92,0.00,,SKC,0.01,VWS V13.01,2013-09-21 13:45:00,
2013-09-21 08:51:00,52.8,50.0,30.07,WNW,289,0.0,0.0,90,0.00,,SKC,0.01,VWS V13.01,2013-09-21 13:51:00,
2013-09-21 08:56:00,53.3,49.8,30.06,WNW,289,0.0,0.0,88,0.00,,SKC,0.01,VWS V13.01,2013-09-21 13:56:00,
2013-09-21 09:01:00,54.0,50.2,30.07,WNW,289,0.0,0.0,87,0.00,,SKC,0.01,VWS V13.01,2013-09-21 14:01:00,
2013-09-21 09:06:00,54.7,50.0,30.06,WNW,289,0.0,0.0,84,0.00,,SKC,0.01,VWS V13.01,2013-09-21 14:06:00,
2013-09-21 09:11:00,55.3,50.2,30.07,WNW,289,0.0,0.0,83,0.00,,SKC,0.01,VWS V13.01,2013-09-21 14:11:00,
2013-09-21 09:16:00,55.7,49.6,30.07,South,178,0.0,0.0,80,0.00,,SKC,0.01,VWS V13.01,2013-09-21 14:16:00,
2013-09-21 09:21:00,56.0,49.6,30.07,SW,224,0.0,0.0,79,0.00,,SKC,0.01,VWS V13.01,2013-09-21 14:21:00,
2013-09-21 09:27:00,56.5,49.7,30.07,SW,224,0.0,0.0,78,0.00,,SKC,0.01,VWS V13.01,2013-09-21 14:27:00,
2013-09-21 09:33:00,56.8,50.0,30.07,SW,224,0.0,0.0,78,0.00,,SKC,0.01,VWS V13.01,2013-09-21 14:33:00,
2013-09-21 09:38:00,57.1,51.0,30.07,SW,224,0.0,0.0,80,0.00,,SKC,0.01,VWS V13.01,2013-09-21 14:38:00,
2013-09-21 09:43:00,58.0,51.5,30.07,SSW,210,0.0,0.0,79,0.00,,SKC,0.01,VWS V13.01,2013-09-21 14:43:00,
2013-09-21 09:48:00,58.9,50.6,30.07,South,180,0.0,0.0,74,0.00,,SKC,0.01,VWS V13.01,2013-09-21 14:48:00,
2013-09-21 09:53:00,59.5,51.2,30.07,SSW,197,0.0,0.0,74,0.00,,SKC,0.01,VWS V13.01,2013-09-21 14:53:00,
2013-09-21 09:59:00,60.1,51.4,30.08,ESE,120,0.0,0.0,73,0.00,,SKC,0.01,VWS V13.01,2013-09-21 14:59:00,
2013-09-21 10:04:00,60.7,51.2,30.08,SSE,158,0.0,0.0,71,0.00,,SKC,0.01,VWS V13.01,2013-09-21 15:04:00,
2013-09-21 10:09:00,61.6,51.7,30.07,SSE,158,0.0,0.0,70,0.00,,SKC,0.01,VWS V13.01,2013-09-21 15:09:00,
2013-09-21 10:14:00,62.0,52.5,30.07,SW,216,0.0,3.0,71,0.00,,SKC,0.01,VWS V13.01,2013-09-21 15:14:00,
2013-09-21 10:19:00,61.8,51.1,30.07,WSW,238,0.0,1.0,68,0.00,,SKC,0.01,VWS V13.01,2013-09-21 15:19:00,
2013-09-21 10:24:00,62.2,50.7,30.07,SSW,197,0.0,1.0,66,0.00,,SKC,0.01,VWS V13.01,2013-09-21 15:24:00,
2013-09-21 10:29:00,62.8,51.7,30.07,SSE,158,0.0,1.0,67,0.00,,SKC,0.01,VWS V13.01,2013-09-21 15:29:00,
2013-09-21 10:34:00,63.8,51.8,30.07,West,265,0.0,0.0,65,0.00,,SKC,0.01,VWS V13.01,2013-09-21 15:34:00,
2013-09-21 10:39:00,64.9,52.5,30.07,SSE,161,0.0,0.0,64,0.00,,SKC,0.01,VWS V13.01,2013-09-21 15:39:00,
2013-09-21 10:45:00,65.4,51.2,30.07,East,97,0.0,1.0,60,0.00,,SKC,0.01,VWS V13.01,2013-09-21 15:45:00,
2013-09-21 10:50:00,66.1,50.4,30.07,SE,138,0.0,1.0,57,0.00,,SKC,0.01,VWS V13.01,2013-09-21 15:50:00,
2013-09-21 10:55:00,67.1,50.4,30.06,SSE,162,0.0,0.0,55,0.00,,SKC,0.01,VWS V13.01,2013-09-21 15:55:00,
2013-09-21 11:00:00,67.7,48.9,30.06,ESE,105,0.0,5.0,51,0.00,,SKC,0.01,VWS V13.01,2013-09-21 16:00:00,
2013-09-21 11:05:00,67.7,50.0,30.06,South,190,0.0,0.0,53,0.00,,SKC,0.01,VWS V13.01,2013-09-21 16:05:00,
2013-09-21 11:10:00,68.1,48.8,30.06,ESE,114,4.0,4.0,50,0.00,,SKC,0.01,VWS V13.01,2013-09-21 16:10:00,
2013-09-21 11:15:00,69.5,49.5,30.06,East,97,0.0,2.0,49,0.00,,SKC,0.01,VWS V13.01,2013-09-21 16:15:00,
2013-09-21 11:20:00,70.3,50.3,30.06,SSW,192,0.0,0.0,49,0.00,,SKC,0.01,VWS V13.01,2013-09-21 16:20:00,
2013-09-21 11:25:00,68.9,49.5,30.05,South,178,2.0,2.0,50,0.00,,SKC,0.01,VWS V13.01,2013-09-21 16:25:00,
2013-09-21 11:30:00,68.8,51.0,30.05,East,95,1.0,4.0,53,0.00,,SKC,0.01,VWS V13.01,2013-09-21 16:30:00,
2013-09-21 11:35:00,69.4,51.0,30.05,SW,217,2.0,2.0,52,0.00,,SKC,0.01,VWS V13.01,2013-09-21 16:35:00,
2013-09-21 11:40:00,69.2,49.8,30.05,SSW,199,0.0,5.0,50,0.00,,SKC,0.01,VWS V13.01,2013-09-21 16:40:00,
2013-09-21 11:45:00,69.1,49.7,30.05,SSW,202,0.0,1.0,50,0.00,,SKC,0.01,VWS V13.01,2013-09-21 16:45:00,
2013-09-21 11:50:00,69.9,49.9,30.05,South,178,0.0,2.0,49,0.00,,SKC,0.01,VWS V13.01,2013-09-21 16:50:00,
2013-09-21 11:55:00,70.5,50.4,30.05,SE,132,0.0,4.0,49,0.00,,SKC,0.01,VWS V13.01,2013-09-21 16:55:00,
2013-09-21 12:00:00,70.8,49.6,30.05,ESE,116,0.0,1.0,47,0.00,,SKC,0.01,VWS V13.01,2013-09-21 17:00:00,
2013-09-21 12:05:00,70.7,50.1,30.05,ESE,120,1.0,2.0,48,0.00,,SKC,0.01,VWS V13.01,2013-09-21 17:05:00,
2013-09-21 12:10:00,71.9,50.6,30.04,SSE,156,0.0,1.0,47,0.00,,SKC,0.01,VWS V13.01,2013-09-21 17:10:00,
2013-09-21 12:15:00,73.2,49.4,30.04,SE,142,0.0,5.0,43,0.00,,SKC,0.01,VWS V13.01,2013-09-21 17:15:00,
2013-09-21 12:20:00,72.7,49.5,30.04,ESE,120,1.0,3.0,44,0.00,,SKC,0.01,VWS V13.01,2013-09-21 17:20:00,
2013-09-21 12:25:00,73.2,49.4,30.03,East,93,0.0,1.0,43,0.00,,SKC,0.01,VWS V13.01,2013-09-21 17:25:00,
2013-09-21 12:30:00,73.4,50.2,30.03,ENE,76,3.0,5.0,44,0.00,,SKC,0.01,VWS V13.01,2013-09-21 17:30:00,
2013-09-21 12:36:00,73.9,50.6,30.03,SE,137,0.0,0.0,44,0.00,,SKC,0.01,VWS V13.01,2013-09-21 17:36:00,
2013-09-21 12:42:00,74.3,50.4,30.03,SE,137,0.0,2.0,43,0.00,,SKC,0.01,VWS V13.01,2013-09-21 17:42:00,
2013-09-21 12:47:00,75.3,49.3,30.03,East,83,0.0,4.0,40,0.00,,SKC,0.01,VWS V13.01,2013-09-21 17:47:00,
2013-09-21 12:52:00,75.3,51.3,30.03,SE,137,0.0,5.0,43,0.00,,SKC,0.01,VWS V13.01,2013-09-21 17:52:00,
2013-09-21 12:57:00,76.2,50.1,30.03,ESE,103,0.0,1.0,40,0.00,,SKC,0.01,VWS V13.01,2013-09-21 17:57:00,
2013-09-21 13:03:00,74.7,49.5,30.03,ESE,114,4.0,7.0,41,0.00,,SKC,0.01,VWS V13.01,2013-09-21 18:03:00,
2013-09-21 13:08:00,75.1,50.5,30.03,SE,126,0.0,1.0,42,0.00,,SKC,0.01,VWS V13.01,2013-09-21 18:08:00,
2013-09-21 13:13:00,76.4,50.3,30.02,South,180,1.0,4.0,40,0.00,,SKC,0.01,VWS V13.01,2013-09-21 18:13:00,
2013-09-21 13:18:00,75.3,49.3,30.02,SSE,160,0.0,5.0,40,0.00,,SKC,0.01,VWS V13.01,2013-09-21 18:18:00,
2013-09-21 13:24:00,76.1,51.4,30.02,ENE,65,2.0,2.0,42,0.00,,SKC,0.01,VWS V13.01,2013-09-21 18:24:00,
2013-09-21 13:29:00,76.8,50.0,30.01,SE,128,1.0,6.0,39,0.00,,SKC,0.01,VWS V13.01,2013-09-21 18:29:00,
2013-09-21 13:35:00,77.2,51.7,30.01,ESE,120,2.0,8.0,41,0.00,,SKC,0.01,VWS V13.01,2013-09-21 18:35:00,
2013-09-21 13:41:00,77.5,50.6,30.01,East,90,0.0,7.0,39,0.00,,SKC,0.01,VWS V13.01,2013-09-21 18:41:00,
2013-09-21 13:46:00,77.4,51.2,30.01,ENE,71,0.0,4.0,40,0.00,,SKC,0.01,VWS V13.01,2013-09-21 18:46:00,
2013-09-21 13:52:00,77.2,49.7,30.00,East,88,1.0,12.0,38,0.00,,SKC,0.01,VWS V13.01,2013-09-21 18:52:00,
2013-09-21 13:57:00,77.9,52.3,30.00,East,98,0.0,2.0,41,0.00,,SKC,0.01,VWS V13.01,2013-09-21 18:57:00,
2013-09-21 14:02:00,78.7,51.0,30.00,SSW,206,6.0,6.0,38,0.00,,SKC,0.01,VWS V13.01,2013-09-21 19:02:00,
2013-09-21 14:07:00,78.1,51.2,30.00,East,88,7.0,9.0,39,0.00,,SKC,0.01,VWS V13.01,2013-09-21 19:07:00,
2013-09-21 14:12:00,78.0,51.8,29.99,SSW,200,2.0,8.0,40,0.00,,SKC,0.01,VWS V13.01,2013-09-21 19:12:00,
2013-09-21 14:17:00,79.0,53.3,29.99,East,89,0.0,2.0,41,0.00,,SKC,0.01,VWS V13.01,2013-09-21 19:17:00,
2013-09-21 14:22:00,80.0,52.8,29.99,SSE,164,2.0,2.0,39,0.00,,SKC,0.01,VWS V13.01,2013-09-21 19:22:00,
2013-09-21 14:27:00,80.3,52.4,29.99,South,176,0.0,0.0,38,0.00,,SKC,0.01,VWS V13.01,2013-09-21 19:27:00,
2013-09-21 14:32:00,80.4,52.5,29.98,East,95,0.0,8.0,38,0.00,,SKC,0.01,VWS V13.01,2013-09-21 19:32:00,
2013-09-21 14:37:00,80.2,51.6,29.98,SSE,159,0.0,1.0,37,0.00,,SKC,0.01,VWS V13.01,2013-09-21 19:37:00,
2013-09-21 14:42:00,80.4,53.9,29.98,ENE,74,0.0,5.0,40,0.00,,SKC,0.01,VWS V13.01,2013-09-21 19:42:00,
2013-09-21 14:47:00,80.6,52.7,29.98,SSE,167,0.0,4.0,38,0.00,,SKC,0.01,VWS V13.01,2013-09-21 19:47:00,
2013-09-21 14:52:00,79.8,52.7,29.98,South,182,1.0,3.0,39,0.00,,SKC,0.01,VWS V13.01,2013-09-21 19:52:00,
2013-09-21 14:57:00,79.4,52.3,29.98,South,185,0.0,6.0,39,0.00,,SKC,0.01,VWS V13.01,2013-09-21 19:57:00,
2013-09-21 15:02:00,78.9,51.9,29.97,SW,228,0.0,5.0,39,0.00,,SKC,0.01,VWS V13.01,2013-09-21 20:02:00,
2013-09-21 15:07:00,79.7,51.9,29.97,East,89,0.0,2.0,38,0.00,,SKC,0.01,VWS V13.01,2013-09-21 20:07:00,
2013-09-21 15:12:00,80.2,53.0,29.97,ESE,104,0.0,5.0,39,0.00,,SKC,0.01,VWS V13.01,2013-09-21 20:12:00,
2013-09-21 15:17:00,81.6,53.6,29.96,WSW,243,0.0,3.0,38,0.00,,SKC,0.01,VWS V13.01,2013-09-21 20:17:00,
2013-09-21 15:22:00,82.0,55.3,29.96,ESE,104,0.0,1.0,40,0.00,,SKC,0.01,VWS V13.01,2013-09-21 20:22:00,
2013-09-21 15:27:00,83.5,54.5,29.96,ENE,73,0.0,5.0,37,0.00,,SKC,0.01,VWS V13.01,2013-09-21 20:27:00,
2013-09-21 15:32:00,82.8,53.2,29.96,South,187,0.0,8.0,36,0.00,,SKC,0.01,VWS V13.01,2013-09-21 20:32:00,
2013-09-21 15:37:00,81.0,53.7,29.95,South,185,0.0,13.0,39,0.00,,SKC,0.01,VWS V13.01,2013-09-21 20:37:00,
2013-09-21 15:42:00,80.1,53.6,29.95,SE,129,0.0,5.0,40,0.00,,SKC,0.01,VWS V13.01,2013-09-21 20:42:00,
2013-09-21 15:47:00,80.5,54.0,29.95,South,170,0.0,1.0,40,0.00,,SKC,0.01,VWS V13.01,2013-09-21 20:47:00,
2013-09-21 15:52:00,80.9,52.9,29.95,South,189,0.0,6.0,38,0.00,,SKC,0.01,VWS V13.01,2013-09-21 20:52:00,
2013-09-21 15:57:00,81.3,52.6,29.94,SE,136,6.0,11.0,37,0.00,,SKC,0.01,VWS V13.01,2013-09-21 20:57:00,
2013-09-21 16:02:00,81.1,53.8,29.94,East,88,2.0,3.0,39,0.00,,SKC,0.01,VWS V13.01,2013-09-21 21:02:00,
2013-09-21 16:07:00,81.9,53.8,29.94,South,182,2.0,6.0,38,0.00,,SKC,0.01,VWS V13.01,2013-09-21 21:07:00,
2013-09-21 16:12:00,81.8,53.7,29.94,South,172,8.0,9.0,38,0.00,,SKC,0.01,VWS V13.01,2013-09-21 21:12:00,
2013-09-21 16:18:00,81.6,53.6,29.94,East,93,0.0,0.0,38,0.00,,SKC,0.01,VWS V13.01,2013-09-21 21:18:00,
2013-09-21 16:23:00,82.1,54.0,29.93,ESE,108,9.0,9.0,38,0.00,,SKC,0.01,VWS V13.01,2013-09-21 21:23:00,
2013-09-21 16:28:00,81.6,54.3,29.93,SE,133,1.0,8.0,39,0.00,,SKC,0.01,VWS V13.01,2013-09-21 21:28:00,
2013-09-21 16:33:00,81.9,55.2,29.93,SSE,160,0.0,0.0,40,0.00,,SKC,0.01,VWS V13.01,2013-09-21 21:33:00,
2013-09-21 16:38:00,81.7,53.7,29.93,SE,129,4.0,6.0,38,0.00,,SKC,0.01,VWS V13.01,2013-09-21 21:38:00,
2013-09-21 16:43:00,81.9,53.8,29.93,SE,141,5.0,8.0,38,0.00,,SKC,0.01,VWS V13.01,2013-09-21 21:43:00,
2013-09-21 16:48:00,81.6,54.3,29.93,SSW,192,3.0,6.0,39,0.00,,SKC,0.01,VWS V13.01,2013-09-21 21:48:00,
2013-09-21 16:53:00,80.7,53.5,29.93,South,180,1.0,7.0,39,0.00,,SKC,0.01,VWS V13.01,2013-09-21 21:53:00,
2013-09-21 16:58:00,79.9,54.8,29.93,SSE,149,0.0,2.0,42,0.00,,SKC,0.01,VWS V13.01,2013-09-21 21:58:00,
2013-09-21 17:03:00,80.3,53.8,29.92,South,176,1.0,4.0,40,0.00,,SKC,0.01,VWS V13.01,2013-09-21 22:03:00,
2013-09-21 17:08:00,80.3,53.1,29.92,SE,126,4.0,10.0,39,0.00,,SKC,0.01,VWS V13.01,2013-09-21 22:08:00,
2013-09-21 17:13:00,80.0,52.8,29.92,SSE,149,5.0,5.0,39,0.00,,SKC,0.01,VWS V13.01,2013-09-21 22:13:00,
2013-09-21 17:18:00,79.8,54.0,29.92,South,189,3.0,3.0,41,0.00,,SKC,0.01,VWS V13.01,2013-09-21 22:18:00,
2013-09-21 17:23:00,80.0,53.5,29.92,SE,133,0.0,6.0,40,0.00,,SKC,0.01,VWS V13.01,2013-09-21 22:23:00,
2013-09-21 17:28:00,80.1,53.6,29.92,ESE,112,0.0,4.0,40,0.00,,SKC,0.01,VWS V13.01,2013-09-21 22:28:00,
2013-09-21 17:33:00,80.1,54.3,29.92,South,170,0.0,1.0,41,0.00,,SKC,0.01,VWS V13.01,2013-09-21 22:33:00,
2013-09-21 17:38:00,80.1,54.3,29.92,SSW,197,0.0,3.0,41,0.00,,SKC,0.01,VWS V13.01,2013-09-21 22:38:00,
2013-09-21 17:44:00,80.3,55.1,29.92,SW,226,0.0,4.0,42,0.00,,SKC,0.01,VWS V13.01,2013-09-21 22:44:00,
2013-09-21 17:49:00,80.5,55.3,29.92,SE,131,0.0,1.0,42,0.00,,SKC,0.01,VWS V13.01,2013-09-21 22:49:00,
2013-09-21 17:54:00,80.8,54.9,29.92,ESE,104,0.0,2.0,41,0.00,,SKC,0.01,VWS V13.01,2013-09-21 22:54:00,
2013-09-21 17:59:00,80.9,55.0,29.91,SE,134,0.0,2.0,41,0.00,,SKC,0.01,VWS V13.01,2013-09-21 22:59:00,
2013-09-21 18:04:00,81.1,54.5,29.91,SE,132,0.0,6.0,40,0.00,,SKC,0.01,VWS V13.01,2013-09-21 23:04:00,
2013-09-21 18:09:00,80.9,55.7,29.91,South,186,0.0,1.0,42,0.00,,SKC,0.01,VWS V13.01,2013-09-21 23:09:00,
2013-09-21 18:14:00,80.8,55.6,29.91,SSW,205,0.0,0.0,42,0.00,,SKC,0.01,VWS V13.01,2013-09-21 23:14:00,
2013-09-21 18:19:00,80.5,55.3,29.91,SSE,152,0.0,1.0,42,0.00,,SKC,0.01,VWS V13.01,2013-09-21 23:19:00,
2013-09-21 18:24:00,80.5,56.0,29.91,South,174,0.0,1.0,43,0.00,,SKC,0.01,VWS V13.01,2013-09-21 23:24:00,
2013-09-21 18:29:00,80.5,55.3,29.91,South,189,0.0,0.0,42,0.00,,SKC,0.01,VWS V13.01,2013-09-21 23:29:00,
2013-09-21 18:34:00,80.5,55.3,29.91,South,189,0.0,0.0,42,0.00,,SKC,0.01,VWS V13.01,2013-09-21 23:34:00,
2013-09-21 18:39:00,80.1,55.6,29.91,SE,145,1.0,2.0,43,0.00,,SKC,0.01,VWS V13.01,2013-09-21 23:39:00,
2013-09-21 18:44:00,79.6,55.2,29.91,SSE,166,0.0,0.0,43,0.00,,SKC,0.01,VWS V13.01,2013-09-21 23:44:00,
2013-09-21 18:49:00,79.2,55.4,29.91,South,181,0.0,0.0,44,0.00,,SKC,0.01,VWS V13.01,2013-09-21 23:49:00,
2013-09-21 18:54:00,78.9,55.8,29.91,SE,130,0.0,0.0,45,0.00,,SKC,0.01,VWS V13.01,2013-09-21 23:54:00,
2013-09-21 18:59:00,78.3,55.8,29.91,ESE,119,0.0,0.0,46,0.00,,SKC,0.01,VWS V13.01,2013-09-21 23:59:00,
2013-09-21 19:04:00,77.8,55.4,29.91,South,185,0.0,1.0,46,0.00,,SKC,0.01,VWS V13.01,2013-09-22 00:04:00,
2013-09-21 19:09:00,77.3,54.9,29.90,South,172,0.0,0.0,46,0.00,,SKC,0.01,VWS V13.01,2013-09-22 00:09:00,
2013-09-21 19:14:00,76.5,54.8,29.90,SE,136,0.0,1.0,47,0.00,,SKC,0.01,VWS V13.01,2013-09-22 00:14:00,
2013-09-21 19:19:00,75.8,54.7,29.91,SE,136,0.0,0.0,48,0.00,,SKC,0.01,VWS V13.01,2013-09-22 00:19:00,
2013-09-21 19:24:00,75.0,54.6,29.90,ESE,106,0.0,0.0,49,0.00,,SKC,0.01,VWS V13.01,2013-09-22 00:24:00,
2013-09-21 19:29:00,74.3,55.0,29.91,SSE,150,0.0,0.0,51,0.00,,SKC,0.01,VWS V13.01,2013-09-22 00:29:00,
2013-09-21 19:34:00,73.7,54.5,29.90,SE,144,0.0,0.0,51,0.00,,SKC,0.01,VWS V13.01,2013-09-22 00:34:00,
2013-09-21 19:39:00,73.0,54.4,29.90,ESE,115,0.0,0.0,52,0.00,,SKC,0.01,VWS V13.01,2013-09-22 00:39:00,
2013-09-21 19:44:00,72.3,54.2,29.90,ENE,76,0.0,0.0,53,0.00,,SKC,0.01,VWS V13.01,2013-09-22 00:44:00,
2013-09-21 19:49:00,71.6,54.1,29.90,SE,139,5.0,5.0,54,0.00,,SKC,0.01,VWS V13.01,2013-09-22 00:49:00,
2013-09-21 19:54:00,71.0,54.0,29.90,SE,130,0.0,10.0,55,0.00,,SKC,0.01,VWS V13.01,2013-09-22 00:54:00,
2013-09-21 19:59:00,70.4,54.0,29.91,SE,125,0.0,0.0,56,0.00,,SKC,0.01,VWS V13.01,2013-09-22 00:59:00,
2013-09-21 20:04:00,70.1,54.2,29.90,SE,125,0.0,0.0,57,0.00,,SKC,0.01,VWS V13.01,2013-09-22 01:04:00,
2013-09-21 20:09:00,69.7,54.3,29.91,ESE,118,0.0,0.0,58,0.00,,SKC,0.01,VWS V13.01,2013-09-22 01:09:00,
2013-09-21 20:14:00,69.3,53.9,29.91,SE,145,0.0,0.0,58,0.00,,SKC,0.01,VWS V13.01,2013-09-22 01:14:00,
2013-09-21 20:19:00,69.0,54.1,29.91,ESE,104,0.0,0.0,59,0.00,,SKC,0.01,VWS V13.01,2013-09-22 01:19:00,
2013-09-21 20:24:00,68.6,53.7,29.91,East,99,0.0,0.0,59,0.00,,SKC,0.01,VWS V13.01,2013-09-22 01:24:00,
2013-09-21 20:29:00,68.4,54.0,29.91,SSE,151,0.0,0.0,60,0.00,,SKC,0.01,VWS V13.01,2013-09-22 01:29:00,
2013-09-21 20:34:00,68.1,53.7,29.91,SSE,150,0.0,0.0,60,0.00,,SKC,0.01,VWS V13.01,2013-09-22 01:34:00,
2013-09-21 20:39:00,67.8,53.9,29.91,ESE,123,0.0,0.0,61,0.00,,SKC,0.01,VWS V13.01,2013-09-22 01:39:00,
2013-09-21 20:44:00,67.5,53.6,29.91,ESE,107,0.0,0.0,61,0.00,,SKC,0.01,VWS V13.01,2013-09-22 01:44:00,
2013-09-21 20:49:00,67.2,53.8,29.92,ESE,110,0.0,0.0,62,0.00,,SKC,0.01,VWS V13.01,2013-09-22 01:49:00,
2013-09-21 20:54:00,67.0,53.6,29.92,SE,137,2.0,2.0,62,0.00,,SKC,0.01,VWS V13.01,2013-09-22 01:54:00,
2013-09-21 20:59:00,66.7,53.7,29.92,ESE,122,0.0,0.0,63,0.00,,SKC,0.01,VWS V13.01,2013-09-22 01:59:00,
2013-09-21 21:04:00,66.5,53.5,29.92,ESE,122,0.0,0.0,63,0.00,,SKC,0.01,VWS V13.01,2013-09-22 02:04:00,
2013-09-21 21:09:00,66.2,53.2,29.92,ESE,122,0.0,0.0,63,0.00,,SKC,0.01,VWS V13.01,2013-09-22 02:09:00,
2013-09-21 21:14:00,66.0,53.1,29.92,ESE,120,0.0,0.0,63,0.00,,SKC,0.01,VWS V13.01,2013-09-22 02:14:00,
2013-09-21 21:19:00,65.8,53.3,29.92,ESE,120,0.0,0.0,64,0.00,,SKC,0.01,VWS V13.01,2013-09-22 02:19:00,
2013-09-21 21:24:00,65.6,53.1,29.92,ESE,121,0.0,0.0,64,0.00,,SKC,0.01,VWS V13.01,2013-09-22 02:24:00,
2013-09-21 21:29:00,65.5,53.4,29.92,ESE,121,0.0,0.0,65,0.00,,SKC,0.01,VWS V13.01,2013-09-22 02:29:00,
2013-09-21 21:34:00,65.4,53.3,29.92,ESE,119,0.0,0.0,65,0.00,,SKC,0.01,VWS V13.01,2013-09-22 02:34:00,
2013-09-21 21:39:00,65.2,53.2,29.92,ESE,120,0.0,5.0,65,0.00,,SKC,0.01,VWS V13.01,2013-09-22 02:39:00,
2013-09-21 21:44:00,65.1,53.1,29.92,SE,144,0.0,0.0,65,0.00,,SKC,0.01,VWS V13.01,2013-09-22 02:44:00,
2013-09-21 21:49:00,65.0,53.0,29.92,SE,135,0.0,0.0,65,0.00,,SKC,0.01,VWS V13.01,2013-09-22 02:49:00,
2013-09-21 21:54:00,64.9,52.9,29.93,South,184,0.0,4.0,65,0.00,,SKC,0.01,VWS V13.01,2013-09-22 02:54:00,
2013-09-21 21:59:00,64.8,52.8,29.93,ESE,122,0.0,4.0,65,0.00,,SKC,0.01,VWS V13.01,2013-09-22 02:59:00,
2013-09-21 22:04:00,64.8,52.8,29.93,ESE,114,0.0,0.0,65,0.00,,SKC,0.01,VWS V13.01,2013-09-22 03:04:00,
2013-09-21 22:09:00,64.7,52.7,29.93,ESE,120,0.0,5.0,65,0.00,,SKC,0.01,VWS V13.01,2013-09-22 03:09:00,
2013-09-21 22:14:00,64.5,52.5,29.93,East,96,0.0,0.0,65,0.00,,SKC,0.01,VWS V13.01,2013-09-22 03:14:00,
2013-09-21 22:19:00,64.4,52.4,29.93,ESE,115,0.0,0.0,65,0.00,,SKC,0.01,VWS V13.01,2013-09-22 03:19:00,
2013-09-21 22:24:00,64.3,52.3,29.93,SSE,158,0.0,0.0,65,0.00,,SKC,0.01,VWS V13.01,2013-09-22 03:24:00,
2013-09-21 22:29:00,64.2,52.6,29.93,ESE,118,0.0,0.0,66,0.00,,SKC,0.01,VWS V13.01,2013-09-22 03:29:00,
2013-09-21 22:34:00,64.1,52.5,29.93,South,172,1.0,7.0,66,0.00,,SKC,0.01,VWS V13.01,2013-09-22 03:34:00,
2013-09-21 22:39:00,64.0,52.4,29.93,SSE,156,0.0,0.0,66,0.00,,SKC,0.01,VWS V13.01,2013-09-22 03:39:00,
2013-09-21 22:44:00,63.9,52.7,29.93,SE,146,0.0,2.0,67,0.00,,SKC,0.01,VWS V13.01,2013-09-22 03:44:00,
2013-09-21 22:49:00,63.8,52.7,29.93,SE,126,0.0,0.0,67,0.00,,SKC,0.01,VWS V13.01,2013-09-22 03:49:00,
2013-09-21 22:54:00,63.8,52.7,29.93,SE,130,0.0,0.0,67,0.00,,SKC,0.01,VWS V13.01,2013-09-22 03:54:00,
2013-09-21 22:59:00,63.6,52.5,29.93,SE,127,0.0,4.0,67,0.00,,SKC,0.01,VWS V13.01,2013-09-22 03:59:00,
2013-09-21 23:01:00,63.6,52.5,29.93,SSW,194,0.0,0.0,67,0.00,,SKC,0.01,VWS V13.01,2013-09-22 04:01:00,
2013-09-21 23:03:00,63.5,52.4,29.93,SSW,194,0.0,0.0,67,0.00,,SKC,0.01,VWS V13.01,2013-09-22 04:03:00,
2013-09-21 23:04:00,63.5,52.4,29.93,SSW,194,0.0,0.0,67,0.00,,SKC,0.01,VWS V13.01,2013-09-22 04:04:00,
2013-09-21 23:05:00,63.5,52.8,29.93,SE,144,0.0,0.0,68,0.00,,SKC,0.01,VWS V13.01,2013-09-22 04:05:00,
2013-09-21 23:10:00,63.3,52.6,29.93,South,177,0.0,0.0,68,0.00,,SKC,0.01,VWS V13.01,2013-09-22 04:10:00,
2013-09-21 23:15:00,63.2,52.5,29.93,ESE,116,0.0,4.0,68,0.00,,SKC,0.01,VWS V13.01,2013-09-22 04:15:00,
2013-09-21 23:20:00,63.2,52.5,29.93,ESE,118,0.0,0.0,68,0.00,,SKC,0.01,VWS V13.01,2013-09-22 04:20:00,
2013-09-21 23:21:00,63.1,52.8,29.93,ESE,122,0.0,0.0,69,0.00,,SKC,0.01,VWS V13.01,2013-09-22 04:21:00,
2013-09-21 23:26:00,63.0,52.7,29.93,SE,143,0.0,0.0,69,0.00,,SKC,0.01,VWS V13.01,2013-09-22 04:26:00,
2013-09-21 23:31:00,62.8,52.5,29.93,SSE,164,0.0,0.0,69,0.00,,SKC,0.01,VWS V13.01,2013-09-22 04:31:00,
2013-09-21 23:36:00,62.7,52.8,29.93,SSE,164,0.0,0.0,70,0.00,,SKC,0.01,VWS V13.01,2013-09-22 04:36:00,
2013-09-21 23:41:00,62.5,52.6,29.93,SE,141,0.0,0.0,70,0.00,,SKC,0.01,VWS V13.01,2013-09-22 04:41:00,
2013-09-21 23:46:00,62.4,52.9,29.93,SSE,151,0.0,0.0,71,0.00,,SKC,0.01,VWS V13.01,2013-09-22 04:46:00,
2013-09-21 23:51:00,62.2,52.7,29.93,SSE,153,0.0,0.0,71,0.00,,SKC,0.01,VWS V13.01,2013-09-22 04:51:00,
2013-09-21 23:56:00,62.2,52.7,29.93,ESE,114,0.0,0.0,71,0.00,,SKC,0.01,VWS V13.01,2013-09-22 04:56:00,